Time;durP1;ratioP1;P1;durP2;ratioP2;P2;SDS_P1;SDS_P2;PMS_P1;PMS_P2;Temp;Humidity;BMP_temperature;BMP_pressure;BME280_temperature;BME280_humidity;BME280_pressure;Samples;Min_cycle;Max_cycle;Signal;HPM_P1;HPM_P2
2021/08/19 00:00:18;;;;;;;1.00;0.65;;;18.50;73.90;;;;;;5057044;28;20446;-77
2021/08/19 00:02:44;;;;;;;1.10;0.80;;;18.40;73.90;;;;;;5080275;28;20059;-76
2021/08/19 00:05:12;;;;;;;0.85;0.55;;;18.30;73.90;;;;;;5097464;28;20031;-76
2021/08/19 00:07:38;;;;;;;0.50;0.40;;;18.30;74.20;;;;;;5094461;28;20103;-77
2021/08/19 00:10:05;;;;;;;0.88;0.50;;;18.30;73.90;;;;;;5077551;28;20071;-77
2021/08/19 00:12:30;;;;;;;0.70;0.40;;;18.30;73.80;;;;;;5077149;28;20020;-76
2021/08/19 00:14:56;;;;;;;0.80;0.38;;;18.30;73.50;;;;;;5064272;28;20139;-76
2021/08/19 00:17:22;;;;;;;1.40;0.50;;;18.30;74.00;;;;;;5055450;28;20025;-76
2021/08/19 00:19:47;;;;;;;0.90;0.70;;;18.30;74.10;;;;;;5064365;28;20107;-76
2021/08/19 00:22:16;;;;;;;1.13;0.55;;;18.30;74.00;;;;;;5077063;28;20020;-76
2021/08/19 00:24:41;;;;;;;0.93;0.50;;;18.20;73.90;;;;;;5076910;28;20554;-77
2021/08/19 00:27:07;;;;;;;0.85;0.52;;;18.20;73.80;;;;;;5074886;28;20075;-76
2021/08/19 00:29:33;;;;;;;0.90;0.60;;;18.20;73.90;;;;;;5056937;28;20033;-76
2021/08/19 00:32:01;;;;;;;0.80;0.50;;;18.20;74.20;;;;;;5056712;28;20033;-76
2021/08/19 00:34:27;;;;;;;1.35;0.50;;;18.20;73.90;;;;;;5055507;28;20036;-77
2021/08/19 00:36:54;;;;;;;1.13;0.75;;;18.10;74.20;;;;;;5056470;28;20035;-78
2021/08/19 00:39:21;;;;;;;1.20;0.80;;;18.10;74.20;;;;;;5056624;28;20033;-76
2021/08/19 00:41:47;;;;;;;1.02;0.70;;;18.00;74.40;;;;;;5073847;28;20024;-77
2021/08/19 00:44:13;;;;;;;0.88;0.65;;;17.90;74.40;;;;;;5076424;28;20105;-77
2021/08/19 00:46:39;;;;;;;0.90;0.60;;;17.90;74.40;;;;;;5076640;28;20056;-77
2021/08/19 00:49:09;;;;;;;1.00;0.70;;;17.90;74.40;;;;;;5076292;28;20028;-77
2021/08/19 00:51:47;;;;;;;0.80;0.50;;;17.80;74.30;;;;;;5057545;28;20029;-77
2021/08/19 00:54:18;;;;;;;1.30;0.90;;;17.90;74.20;;;;;;5056455;28;20112;-77
2021/08/19 00:56:44;;;;;;;1.10;0.70;;;17.90;74.00;;;;;;5060761;28;20087;-77
2021/08/19 00:59:15;;;;;;;1.00;0.70;;;17.90;73.70;;;;;;5076162;28;20040;-77
2021/08/19 01:02:00;;;;;;;2.53;0.88;;;17.90;73.90;;;;;;5076314;28;20019;-76
2021/08/19 01:04:31;;;;;;;1.20;0.70;;;17.80;73.90;;;;;;5092378;28;20024;-77
2021/08/19 01:06:59;;;;;;;1.33;0.70;;;17.80;73.90;;;;;;5096574;28;20031;-77
2021/08/19 01:09:24;;;;;;;1.25;0.60;;;17.80;73.80;;;;;;5096474;28;20042;-77
2021/08/19 01:11:50;;;;;;;1.00;0.70;;;17.80;73.80;;;;;;5074824;28;20112;-77
2021/08/19 01:14:16;;;;;;;1.10;0.70;;;17.80;73.60;;;;;;5056115;28;20028;-77
2021/08/19 01:16:42;;;;;;;0.75;0.45;;;17.80;73.70;;;;;;5056077;28;20086;-77
2021/08/19 01:19:15;;;;;;;1.05;0.60;;;17.80;73.80;;;;;;5055869;28;20025;-77
2021/08/19 01:21:41;;;;;;;2.10;0.80;;;17.80;73.60;;;;;;5055610;28;20025;-77
2021/08/19 01:24:07;;;;;;;1.75;0.75;;;17.80;73.70;;;;;;5056590;28;20017;-77
2021/08/19 01:26:34;;;;;;;1.30;0.60;;;17.70;73.70;;;;;;5075685;28;20029;-77
2021/08/19 01:29:04;;;;;;;1.02;0.68;;;17.80;73.80;;;;;;5063457;28;20048;-77
2021/08/19 01:31:30;;;;;;;2.00;0.75;;;17.70;74.00;;;;;;5056147;28;20029;-77
2021/08/19 01:33:55;;;;;;;1.38;0.70;;;17.70;74.10;;;;;;5055460;28;20029;-77
2021/08/19 01:36:21;;;;;;;0.90;0.55;;;17.70;73.90;;;;;;5055471;28;20522;-76
2021/08/19 01:38:49;;;;;;;1.08;0.73;;;17.70;73.80;;;;;;5054100;28;20290;-77
2021/08/19 01:41:15;;;;;;;0.88;0.68;;;17.60;74.30;;;;;;5066691;28;20017;-76
2021/08/19 01:43:41;;;;;;;2.17;0.70;;;17.50;74.80;;;;;;5067876;28;20032;-77
2021/08/19 01:46:09;;;;;;;2.80;0.90;;;17.50;74.90;;;;;;5053996;28;20041;-77
2021/08/19 01:48:35;;;;;;;1.13;0.77;;;17.50;74.70;;;;;;5055056;28;20028;-77
2021/08/19 01:51:02;;;;;;;1.02;0.70;;;17.50;74.80;;;;;;5055343;28;20025;-77
2021/08/19 01:53:28;;;;;;;1.15;0.70;;;17.50;74.70;;;;;;5055352;28;20025;-77
2021/08/19 01:55:58;;;;;;;1.10;0.80;;;17.50;74.80;;;;;;5055525;28;20031;-77
2021/08/19 01:58:24;;;;;;;1.27;0.95;;;17.50;74.60;;;;;;5055059;28;20036;-77
2021/08/19 02:00:50;;;;;;;1.30;0.90;;;17.50;74.60;;;;;;5055239;28;20108;-77
2021/08/19 02:03:16;;;;;;;1.00;0.75;;;17.40;74.80;;;;;;5071003;28;20063;-77
2021/08/19 02:05:42;;;;;;;2.20;0.80;;;17.40;74.80;;;;;;5095316;28;20017;-77
2021/08/19 02:08:09;;;;;;;1.10;0.73;;;17.40;75.00;;;;;;5055498;28;20029;-77
2021/08/19 02:10:38;;;;;;;0.77;0.50;;;17.40;75.00;;;;;;5055286;28;20051;-77
2021/08/19 02:13:05;;;;;;;1.75;0.90;;;17.40;74.60;;;;;;5055074;28;20089;-77
2021/08/19 02:15:31;;;;;;;1.33;0.90;;;17.40;74.60;;;;;;5054847;28;20048;-77
2021/08/19 02:17:57;;;;;;;1.00;0.70;;;17.40;75.00;;;;;;5054894;28;20542;-77
2021/08/19 02:20:23;;;;;;;2.00;0.75;;;17.30;75.10;;;;;;5053742;28;20025;-77
2021/08/19 02:22:49;;;;;;;1.23;0.50;;;17.30;75.50;;;;;;5055083;28;20044;-77
2021/08/19 02:25:16;;;;;;;1.13;0.73;;;17.20;76.00;;;;;;5054813;28;20032;-77
2021/08/19 02:27:44;;;;;;;1.05;0.77;;;17.30;75.70;;;;;;5055054;28;20048;-77
2021/08/19 02:30:11;;;;;;;1.35;0.68;;;17.30;75.40;;;;;;5055049;28;20131;-77
2021/08/19 02:32:37;;;;;;;1.00;0.80;;;17.30;75.60;;;;;;5054700;28;20491;-77
2021/08/19 02:35:04;;;;;;;1.95;0.80;;;17.30;75.90;;;;;;5054972;28;20082;-77
2021/08/19 02:37:29;;;;;;;1.58;0.77;;;17.20;76.00;;;;;;5053047;28;20411;-77
2021/08/19 02:39:55;;;;;;;0.98;0.65;;;17.20;76.20;;;;;;5055125;28;20029;-77
2021/08/19 02:42:21;;;;;;;1.35;0.70;;;17.20;75.60;;;;;;5073735;28;20114;-77
2021/08/19 02:44:49;;;;;;;1.30;0.82;;;17.30;76.30;;;;;;5074751;28;20056;-77
2021/08/19 02:47:14;;;;;;;1.40;0.80;;;17.30;75.80;;;;;;5074965;28;20043;-77
2021/08/19 02:49:40;;;;;;;1.27;0.90;;;17.20;75.80;;;;;;5069062;28;20059;-77
2021/08/19 02:52:06;;;;;;;1.38;0.82;;;17.20;76.00;;;;;;5070145;28;20033;-77
2021/08/19 02:54:32;;;;;;;1.00;0.75;;;17.20;76.10;;;;;;5062499;28;20021;-77
2021/08/19 02:56:57;;;;;;;1.70;1.20;;;17.20;75.70;;;;;;5075676;28;20024;-77
2021/08/19 02:59:23;;;;;;;1.20;0.77;;;17.20;75.60;;;;;;5059675;28;20055;-77
2021/08/19 03:01:52;;;;;;;1.50;0.93;;;17.20;75.60;;;;;;5080949;28;20338;-77
2021/08/19 03:04:18;;;;;;;1.07;0.67;;;17.20;75.90;;;;;;5054669;28;20025;-77
2021/08/19 03:06:43;;;;;;;0.90;0.60;;;17.20;76.00;;;;;;5053385;28;20539;-77
2021/08/19 03:09:09;;;;;;;0.90;0.60;;;17.20;75.90;;;;;;5054385;28;20396;-77
2021/08/19 03:11:35;;;;;;;1.80;0.70;;;17.20;76.00;;;;;;5058494;28;20111;-77
2021/08/19 03:14:01;;;;;;;1.00;0.70;;;17.20;76.00;;;;;;5096895;28;20032;-77
2021/08/19 03:16:27;;;;;;;1.50;0.90;;;17.20;76.10;;;;;;5081819;28;20727;-77
2021/08/19 03:18:52;;;;;;;1.25;0.80;;;17.20;76.20;;;;;;5057887;28;20040;-77
2021/08/19 03:21:20;;;;;;;1.27;0.80;;;17.20;75.90;;;;;;5058103;28;20028;-77
2021/08/19 03:23:49;;;;;;;1.88;0.85;;;17.20;75.80;;;;;;5057903;28;20021;-77
2021/08/19 03:26:15;;;;;;;1.30;0.70;;;17.20;75.50;;;;;;5058032;28;20029;-77
2021/08/19 03:28:45;;;;;;;1.40;1.00;;;17.20;75.90;;;;;;5058297;28;20047;-77
2021/08/19 03:31:11;;;;;;;1.52;0.80;;;17.20;75.70;;;;;;5072215;28;20083;-77
2021/08/19 03:33:37;;;;;;;1.17;0.80;;;17.20;76.00;;;;;;5057846;28;20450;-77
2021/08/19 03:36:04;;;;;;;1.08;0.80;;;17.20;76.00;;;;;;5060658;28;20832;-77
2021/08/19 03:38:30;;;;;;;2.88;1.05;;;17.20;75.80;;;;;;5076536;28;20127;-77
2021/08/19 03:40:55;;;;;;;1.95;0.90;;;17.20;75.30;;;;;;5076398;28;20044;-77
2021/08/19 03:43:21;;;;;;;2.75;1.15;;;17.20;75.50;;;;;;5076738;28;20795;-77
2021/08/19 03:45:50;;;;;;;1.88;1.05;;;17.20;75.40;;;;;;5077608;28;20041;-77
2021/08/19 03:48:17;;;;;;;1.10;0.85;;;17.20;75.60;;;;;;5080615;28;20102;-77
2021/08/19 03:50:45;;;;;;;1.40;0.90;;;17.10;76.00;;;;;;5097880;28;20486;-77
2021/08/19 03:53:11;;;;;;;1.35;0.90;;;17.20;76.10;;;;;;5081699;28;20039;-77
2021/08/19 03:55:37;;;;;;;1.83;1.08;;;17.10;76.00;;;;;;5057690;28;20032;-77
2021/08/19 03:58:03;;;;;;;1.45;1.13;;;17.10;75.70;;;;;;5057553;28;20063;-78
2021/08/19 04:00:29;;;;;;;1.95;0.98;;;17.10;75.60;;;;;;5056111;28;20051;-77
2021/08/19 04:02:55;;;;;;;1.30;0.80;;;17.20;75.60;;;;;;5076141;28;20032;-77
2021/08/19 04:05:21;;;;;;;1.48;0.90;;;17.10;76.00;;;;;;5076216;28;20013;-77
2021/08/19 04:07:46;;;;;;;1.20;0.90;;;17.10;75.70;;;;;;5077277;28;20031;-77
2021/08/19 04:10:13;;;;;;;1.08;0.80;;;17.10;75.90;;;;;;5058619;28;20110;-77
2021/08/19 04:12:38;;;;;;;2.60;1.20;;;17.10;76.00;;;;;;5060418;28;20032;-77
2021/08/19 04:15:06;;;;;;;1.50;0.88;;;17.10;76.10;;;;;;5057272;28;20021;-77
2021/08/19 04:17:32;;;;;;;1.10;0.70;;;17.10;75.50;;;;;;5056953;28;20156;-77
2021/08/19 04:19:57;;;;;;;1.48;0.90;;;17.10;75.70;;;;;;5056778;28;20057;-77
2021/08/19 04:22:23;;;;;;;1.70;1.00;;;17.10;75.40;;;;;;5076581;28;20029;-77
2021/08/19 04:24:49;;;;;;;1.50;1.00;;;17.10;75.30;;;;;;5074754;28;20028;-77
2021/08/19 04:27:18;;;;;;;1.10;0.80;;;17.10;75.00;;;;;;5071219;28;20802;-77
2021/08/19 04:29:43;;;;;;;0.90;0.80;;;17.10;75.20;;;;;;5056640;28;20032;-77
2021/08/19 04:32:09;;;;;;;1.23;0.85;;;17.10;75.00;;;;;;5056707;28;20044;-77
2021/08/19 04:34:35;;;;;;;2.35;1.00;;;17.10;75.30;;;;;;5056787;28;20404;-77
2021/08/19 04:37:00;;;;;;;1.73;0.90;;;17.00;75.20;;;;;;5056583;28;20085;-77
2021/08/19 04:39:27;;;;;;;2.70;1.00;;;17.00;75.40;;;;;;5056536;28;20036;-77
2021/08/19 04:41:53;;;;;;;1.20;0.90;;;17.00;75.60;;;;;;5073208;28;20546;-77
2021/08/19 04:44:22;;;;;;;1.35;1.10;;;17.00;75.50;;;;;;5065023;28;20143;-77
2021/08/19 04:46:47;;;;;;;1.90;0.95;;;16.90;75.80;;;;;;5056854;28;20053;-77
2021/08/19 04:49:13;;;;;;;1.40;0.90;;;17.00;75.80;;;;;;5075056;28;20037;-78
2021/08/19 04:51:39;;;;;;;1.27;0.90;;;17.00;75.60;;;;;;5066287;28;20037;-78
2021/08/19 04:54:05;;;;;;;2.25;0.93;;;17.00;75.50;;;;;;5056574;28;20427;-77
2021/08/19 04:56:37;;;;;;;1.20;0.90;;;17.00;75.70;;;;;;5056275;28;20101;-77
2021/08/19 04:59:07;;;;;;;1.73;1.10;;;17.00;76.00;;;;;;5056083;28;20376;-77
2021/08/19 05:01:33;;;;;;;;;;;17.00;76.10;;;;;;5056804;28;20021;-77
2021/08/19 05:03:59;;;;;;;1.25;0.98;;;17.00;76.20;;;;;;5056175;28;19908;-78
2021/08/19 05:06:29;;;;;;;1.17;0.90;;;17.00;76.20;;;;;;5056154;28;20082;-77
2021/08/19 05:08:55;;;;;;;1.23;0.93;;;17.00;76.20;;;;;;5054679;28;20097;-77
2021/08/19 05:11:23;;;;;;;1.52;1.00;;;17.00;76.50;;;;;;5056193;28;20032;-78
2021/08/19 05:13:49;;;;;;;1.80;1.20;;;17.00;76.50;;;;;;5056092;28;20376;-77
2021/08/19 05:16:15;;;;;;;1.52;1.00;;;16.90;76.60;;;;;;5066771;28;20036;-78
2021/08/19 05:18:42;;;;;;;1.60;1.20;;;16.90;76.70;;;;;;5071557;28;20526;-78
2021/08/19 05:21:08;;;;;;;1.40;1.00;;;16.90;76.60;;;;;;5056068;28;20021;-77
2021/08/19 05:23:53;;;;;;;;;;;;;;;;;;;;;
2021/08/19 05:26:19;;;;;;;1.50;1.00;;;16.90;76.10;;;;;;5055723;28;20394;-77
2021/08/19 05:28:45;;;;;;;2.05;1.00;;;16.90;75.30;;;;;;5055788;28;20049;-78
2021/08/19 05:31:12;;;;;;;1.40;1.00;;;17.00;75.00;;;;;;5055565;28;20021;-77
2021/08/19 05:33:38;;;;;;;1.42;0.90;;;16.90;75.40;;;;;;5055688;28;20020;-79
2021/08/19 05:36:08;;;;;;;1.15;0.85;;;16.80;75.60;;;;;;5064039;28;20453;-81
2021/08/19 05:38:35;;;;;;;1.40;0.95;;;16.90;75.80;;;;;;5075316;28;20031;-78
2021/08/19 05:41:01;;;;;;;1.10;0.90;;;16.80;75.50;;;;;;5075518;28;20025;-78
2021/08/19 05:43:26;;;;;;;1.45;0.88;;;16.90;75.20;;;;;;5074105;28;20019;-77
2021/08/19 05:45:52;;;;;;;1.10;0.70;;;17.00;74.20;;;;;;5074783;28;20108;-78
2021/08/19 05:48:17;;;;;;;0.90;0.70;;;17.00;74.60;;;;;;5065097;28;20461;-78
2021/08/19 05:50:43;;;;;;;1.30;0.88;;;17.00;74.10;;;;;;5070470;28;20029;-79
2021/08/19 05:53:09;;;;;;;1.08;0.80;;;16.90;74.20;;;;;;5057749;28;20507;-77
2021/08/19 05:55:34;;;;;;;1.40;1.00;;;17.00;74.70;;;;;;5055389;28;20708;-77
2021/08/19 05:58:00;;;;;;;1.85;1.00;;;17.00;74.30;;;;;;5055142;28;20052;-78
2021/08/19 06:00:26;;;;;;;1.50;0.93;;;17.10;74.20;;;;;;5055133;28;20040;-78
2021/08/19 06:02:52;;;;;;;1.10;0.70;;;17.10;73.60;;;;;;5054933;28;20025;-77
2021/08/19 06:05:18;;;;;;;2.08;0.95;;;17.00;74.50;;;;;;5055013;28;20025;-78
2021/08/19 06:07:45;;;;;;;1.23;0.77;;;17.00;74.30;;;;;;5055020;28;20033;-78
2021/08/19 06:10:11;;;;;;;1.30;0.90;;;17.10;73.40;;;;;;5069403;28;20024;-78
2021/08/19 06:12:37;;;;;;;1.20;0.80;;;17.20;73.80;;;;;;5068546;28;20535;-79
2021/08/19 06:15:04;;;;;;;1.33;0.80;;;17.30;73.50;;;;;;5064187;28;20069;-85
2021/08/19 06:17:31;;;;;;;1.30;0.80;;;17.30;73.20;;;;;;5070268;28;20029;-82
2021/08/19 06:19:56;;;;;;;1.40;0.90;;;17.30;73.00;;;;;;5055124;28;20039;-81
2021/08/19 06:22:22;;;;;;;1.23;0.90;;;17.30;73.00;;;;;;5053671;28;20391;-81
2021/08/19 06:24:48;;;;;;;1.40;0.82;;;17.30;72.80;;;;;;5054943;28;20579;-84
2021/08/19 06:27:13;;;;;;;1.33;0.90;;;17.20;73.30;;;;;;5065254;28;20021;-81
2021/08/19 06:29:39;;;;;;;1.40;1.00;;;17.20;73.60;;;;;;5059579;28;20488;-80
2021/08/19 06:32:05;;;;;;;1.35;1.00;;;17.10;74.10;;;;;;5061103;28;20341;-82
2021/08/19 06:34:32;;;;;;;1.02;0.82;;;17.00;74.30;;;;;;5054876;28;20048;-79
2021/08/19 06:36:57;;;;;;;2.33;0.98;;;17.20;73.80;;;;;;5054803;28;20058;-79
2021/08/19 06:39:23;;;;;;;2.30;0.82;;;17.10;73.80;;;;;;5059020;28;20032;-79
2021/08/19 06:41:48;;;;;;;0.98;0.70;;;17.10;74.00;;;;;;5067098;28;20140;-79
2021/08/19 06:44:14;;;;;;;1.30;1.00;;;17.20;73.10;;;;;;5064528;28;20033;-78
2021/08/19 06:46:40;;;;;;;1.33;0.90;;;17.30;72.30;;;;;;5072722;28;20044;-78
2021/08/19 06:49:05;;;;;;;1.58;1.05;;;17.30;72.60;;;;;;5070563;28;20029;-79
2021/08/19 06:51:31;;;;;;;0.90;0.65;;;17.30;72.20;;;;;;5078500;28;20020;-86
2021/08/19 06:53:58;;;;;;;1.00;0.70;;;17.30;72.30;;;;;;5058921;28;20531;-79
2021/08/19 06:56:25;;;;;;;2.15;0.70;;;17.50;71.50;;;;;;5058228;28;20056;-78
2021/08/19 06:58:51;;;;;;;1.05;0.70;;;17.60;71.20;;;;;;5068734;28;20032;-79
2021/08/19 07:01:16;;;;;;;1.50;0.80;;;17.70;71.10;;;;;;5069624;28;20840;-78
2021/08/19 07:03:42;;;;;;;1.20;0.80;;;17.70;70.10;;;;;;5058071;28;20029;-78
2021/08/19 07:06:14;;;;;;;0.90;0.60;;;17.90;69.60;;;;;;5061251;28;20046;-80
2021/08/19 07:08:41;;;;;;;1.10;0.80;;;18.00;68.50;;;;;;5077746;28;20020;-82
2021/08/19 07:11:06;;;;;;;1.10;0.60;;;18.10;68.50;;;;;;5066579;28;20041;-81
2021/08/19 07:13:32;;;;;;;1.52;0.73;;;18.30;67.80;;;;;;5057538;28;20171;-78
2021/08/19 07:15:58;;;;;;;0.93;0.60;;;18.40;67.10;;;;;;5057612;28;20028;-78
2021/08/19 07:18:23;;;;;;;1.33;0.65;;;18.40;67.80;;;;;;5057429;28;20028;-78
2021/08/19 07:20:49;;;;;;;1.20;0.70;;;18.40;66.90;;;;;;5068906;28;20436;-79
2021/08/19 07:23:15;;;;;;;1.13;0.70;;;18.30;65.90;;;;;;5077396;28;20035;-79
2021/08/19 07:25:40;;;;;;;1.10;0.77;;;18.20;66.40;;;;;;5074784;28;20028;-80
2021/08/19 07:28:06;;;;;;;0.93;0.63;;;18.00;66.20;;;;;;5055541;28;20103;-81
2021/08/19 07:30:32;;;;;;;0.90;0.77;;;17.90;66.80;;;;;;5063754;28;20646;-80
2021/08/19 07:32:59;;;;;;;0.95;0.70;;;17.80;66.70;;;;;;5062783;28;20507;-81
2021/08/19 07:35:25;;;;;;;1.20;0.70;;;17.90;67.50;;;;;;5060033;28;20037;-80
2021/08/19 07:37:54;;;;;;;1.10;0.75;;;18.00;67.10;;;;;;5073237;28;20508;-81
2021/08/19 07:40:22;;;;;;;1.30;0.70;;;18.00;66.20;;;;;;5076709;28;20038;-81
2021/08/19 07:42:50;;;;;;;0.95;0.70;;;18.30;65.50;;;;;;5065695;28;20028;-81
2021/08/19 07:45:16;;;;;;;0.95;0.70;;;18.50;65.90;;;;;;5075742;28;20411;-81
2021/08/19 07:47:42;;;;;;;1.50;0.60;;;19.20;62.90;;;;;;5063112;28;20036;-81
2021/08/19 07:50:09;;;;;;;1.23;0.70;;;19.90;60.80;;;;;;5074918;28;20083;-81
2021/08/19 07:52:36;;;;;;;1.00;0.57;;;21.30;56.90;;;;;;5072225;28;20058;-76
2021/08/19 07:55:03;;;;;;;1.00;0.50;;;23.80;49.90;;;;;;5072254;28;20024;-76
2021/08/19 07:57:40;;;;;;;1.38;0.60;;;26.10;43.90;;;;;;5070499;28;20025;-77
2021/08/19 08:00:06;;;;;;;0.95;0.40;;;28.30;38.70;;;;;;5068896;28;20052;-76
2021/08/19 08:02:32;;;;;;;0.82;0.40;;;29.90;36.90;;;;;;5059858;28;20025;-78
2021/08/19 08:04:57;;;;;;;1.10;0.40;;;31.00;34.90;;;;;;5059789;28;20511;-73
2021/08/19 08:07:23;;;;;;;1.17;0.45;;;31.80;31.50;;;;;;5058323;28;20539;-75
2021/08/19 08:09:49;;;;;;;0.90;0.50;;;32.80;31.10;;;;;;5072581;28;20025;-75
2021/08/19 08:12:14;;;;;;;0.55;0.30;;;32.90;30.10;;;;;;5084037;28;20032;-75
2021/08/19 08:14:40;;;;;;;1.45;0.40;;;32.60;30.40;;;;;;5070434;28;20403;-75
2021/08/19 08:17:06;;;;;;;0.55;0.35;;;33.30;30.20;;;;;;5056882;28;20112;-75
2021/08/19 08:19:31;;;;;;;0.77;0.40;;;34.20;28.70;;;;;;5061635;28;20024;-76
2021/08/19 08:21:57;;;;;;;1.17;0.47;;;34.30;26.70;;;;;;5072045;28;20043;-75
2021/08/19 08:24:23;;;;;;;0.90;0.40;;;34.10;30.10;;;;;;5079685;28;20048;-75
2021/08/19 08:26:48;;;;;;;0.50;0.30;;;34.90;28.40;;;;;;5064991;28;20488;-76
2021/08/19 08:29:14;;;;;;;0.85;0.35;;;34.70;27.90;;;;;;5060166;28;20529;-78
2021/08/19 08:31:40;;;;;;;0.60;0.30;;;34.70;27.40;;;;;;5057843;28;20403;-77
2021/08/19 08:34:06;;;;;;;0.80;0.43;;;34.70;26.90;;;;;;5056504;28;20028;-76
2021/08/19 08:36:31;;;;;;;0.70;0.40;;;34.90;28.00;;;;;;5060408;28;20391;-77
2021/08/19 08:38:57;;;;;;;0.70;0.30;;;35.40;27.00;;;;;;5063245;28;20124;-77
2021/08/19 08:41:24;;;;;;;0.95;0.38;;;34.30;26.50;;;;;;5071496;28;20090;-76
2021/08/19 08:43:51;;;;;;;1.05;0.43;;;34.20;28.30;;;;;;5073049;28;20021;-77
2021/08/19 08:46:18;;;;;;;0.55;0.40;;;34.40;27.30;;;;;;5076270;28;20265;-77
2021/08/19 08:48:45;;;;;;;0.80;0.40;;;34.50;27.50;;;;;;5065440;28;20064;-77
2021/08/19 08:51:11;;;;;;;0.90;0.40;;;34.80;28.00;;;;;;5063062;28;20041;-77
2021/08/19 08:53:37;;;;;;;0.75;0.30;;;33.90;28.10;;;;;;5065387;28;20028;-77
2021/08/19 08:56:03;;;;;;;0.60;0.30;;;32.60;30.10;;;;;;5070079;28;20029;-77
2021/08/19 08:58:28;;;;;;;1.00;0.40;;;31.40;32.00;;;;;;5074571;28;20039;-77
2021/08/19 09:00:54;;;;;;;0.75;0.30;;;30.40;33.80;;;;;;5074248;28;20028;-77
2021/08/19 09:03:20;;;;;;;0.57;0.20;;;30.00;33.30;;;;;;5069681;28;20060;-77
2021/08/19 09:05:49;;;;;;;0.70;0.30;;;29.60;33.80;;;;;;5063649;28;20013;-77
2021/08/19 09:08:18;;;;;;;0.60;0.20;;;28.80;35.30;;;;;;5074651;28;20107;-77
2021/08/19 09:10:46;;;;;;;0.55;0.30;;;28.30;36.30;;;;;;5069960;28;20376;-77
2021/08/19 09:13:23;;;;;;;0.73;0.38;;;27.80;38.10;;;;;;5084306;28;20032;-77
2021/08/19 09:15:49;;;;;;;0.70;0.30;;;27.30;38.40;;;;;;5066422;28;20032;-77
2021/08/19 09:18:49;;;;;;;0.70;0.40;;;27.20;39.10;;;;;;5073207;28;20033;-77
2021/08/19 09:21:23;;;;;;;0.95;0.50;;;26.70;40.00;;;;;;5018999;28;20033;-77
2021/08/19 09:24:11;;;;;;;1.02;0.40;;;26.90;40.50;;;;;;5055451;28;20029;-77
2021/08/19 09:26:36;;;;;;;1.23;0.60;;;27.10;40.00;;;;;;5054968;28;20029;-77
2021/08/19 09:29:29;;;;;;;0.85;0.45;;;26.70;39.50;;;;;;5070814;28;20025;-77
2021/08/19 09:32:16;;;;;;;0.90;0.50;;;26.30;41.60;;;;;;5060553;28;20025;-76
2021/08/19 09:34:47;;;;;;;1.05;0.70;;;26.20;42.50;;;;;;5055274;28;20032;-76
2021/08/19 09:37:19;;;;;;;0.70;0.30;;;25.90;41.90;;;;;;5066223;28;20048;-77
2021/08/19 09:39:48;;;;;;;0.98;0.40;;;26.10;42.30;;;;;;5062924;28;20029;-77
2021/08/19 09:42:15;;;;;;;1.27;0.40;;;25.60;44.10;;;;;;5074406;28;20498;-77
2021/08/19 09:44:43;;;;;;;1.00;0.60;;;25.70;43.40;;;;;;5070787;28;20117;-77
2021/08/19 09:47:32;;;;;;;0.82;0.40;;;25.80;43.30;;;;;;5067742;28;20028;-77
2021/08/19 09:50:12;;;;;;;1.15;0.40;;;25.90;42.80;;;;;;5058299;28;20064;-76
2021/08/19 09:52:38;;;;;;;0.80;0.30;;;26.30;42.30;;;;;;5060513;28;20031;-76
2021/08/19 09:55:23;;;;;;;0.63;0.35;;;26.40;42.30;;;;;;5070937;28;21294;-77
2021/08/19 09:57:49;;;;;;;2.00;0.50;;;26.50;42.60;;;;;;5063657;28;20391;-79
2021/08/19 10:00:22;;;;;;;0.75;0.35;;;26.30;42.50;;;;;;5061683;28;20086;-86
2021/08/19 10:02:47;;;;;;;0.90;0.40;;;26.40;42.60;;;;;;5066413;28;20025;-80
2021/08/19 10:05:15;;;;;;;0.73;0.38;;;26.50;42.30;;;;;;5071158;28;20035;-77
2021/08/19 10:07:41;;;;;;;0.75;0.35;;;26.70;42.20;;;;;;5074265;28;20020;-83
2021/08/19 10:10:08;;;;;;;1.10;0.50;;;26.40;42.10;;;;;;5065054;28;20029;-82
2021/08/19 10:12:35;;;;;;;0.60;0.30;;;26.40;41.60;;;;;;5067274;28;20047;-80
2021/08/19 10:15:01;;;;;;;0.75;0.30;;;26.50;41.70;;;;;;5067891;28;20574;-80
2021/08/19 10:17:27;;;;;;;0.60;0.30;;;26.60;41.60;;;;;;5064788;28;20115;-77
2021/08/19 10:19:53;;;;;;;1.17;0.40;;;26.70;41.40;;;;;;5074244;28;20103;-77
2021/08/19 10:22:22;;;;;;;1.50;0.60;;;26.60;41.50;;;;;;5070179;28;20028;-78
2021/08/19 10:24:53;;;;;;;0.47;0.30;;;26.50;42.00;;;;;;5062716;28;20079;-79
2021/08/19 10:27:24;;;;;;;0.90;0.50;;;26.70;42.30;;;;;;5070719;28;20024;-78
2021/08/19 10:29:51;;;;;;;1.65;0.50;;;26.70;41.00;;;;;;5070596;28;20029;-78
2021/08/19 10:32:31;;;;;;;1.00;0.47;;;26.60;41.00;;;;;;5077904;28;20028;-77
2021/08/19 10:34:58;;;;;;;0.82;0.38;;;26.30;41.70;;;;;;5065746;28;20036;-79
2021/08/19 10:37:46;;;;;;;0.60;0.40;;;26.00;44.20;;;;;;5077178;28;20031;-78
2021/08/19 10:40:24;;;;;;;0.60;0.40;;;25.90;44.00;;;;;;5071910;28;20399;-79
2021/08/19 10:42:51;;;;;;;1.17;0.35;;;25.90;43.90;;;;;;5075559;28;20036;-79
2021/08/19 10:45:29;;;;;;;1.27;0.35;;;26.10;43.90;;;;;;5059949;28;20561;-79
2021/08/19 10:48:14;;;;;;;0.63;0.30;;;25.90;44.30;;;;;;5073035;28;20556;-80
2021/08/19 10:50:42;;;;;;;0.70;0.40;;;26.10;43.60;;;;;;5063657;28;20550;-80
2021/08/19 10:53:27;;;;;;;0.60;0.38;;;26.10;44.30;;;;;;5064419;28;20032;-81
2021/08/19 10:55:55;;;;;;;0.70;0.40;;;26.00;43.80;;;;;;5079167;28;20032;-82
2021/08/19 10:58:32;;;;;;;0.85;0.45;;;26.10;43.50;;;;;;5074881;28;20046;-78
2021/08/19 11:01:01;;;;;;;0.70;0.30;;;26.00;43.90;;;;;;5065833;28;20064;-79
2021/08/19 11:03:35;;;;;;;0.90;0.40;;;26.20;43.70;;;;;;5059573;28;20055;-78
2021/08/19 11:06:06;;;;;;;1.00;0.30;;;26.30;44.00;;;;;;5067059;28;20578;-78
2021/08/19 11:08:39;;;;;;;0.90;0.50;;;26.50;43.60;;;;;;5070859;28;20104;-78
2021/08/19 11:11:07;;;;;;;1.05;0.38;;;26.70;42.90;;;;;;5058550;28;20122;-78
2021/08/19 11:13:35;;;;;;;0.77;0.40;;;26.60;43.20;;;;;;5072448;28;20024;-79
2021/08/19 11:16:05;;;;;;;1.10;0.40;;;26.60;42.90;;;;;;5067618;28;20044;-77
2021/08/19 11:18:33;;;;;;;0.80;0.30;;;26.60;43.30;;;;;;5063279;28;20025;-78
2021/08/19 11:21:00;;;;;;;0.88;0.45;;;26.60;42.80;;;;;;5065920;28;20035;-78
2021/08/19 11:23:28;;;;;;;0.75;0.30;;;26.00;44.40;;;;;;5062160;28;20040;-79
2021/08/19 11:26:04;;;;;;;0.52;0.30;;;25.70;45.10;;;;;;5065537;28;20027;-81
2021/08/19 11:28:36;;;;;;;0.65;0.38;;;25.80;46.10;;;;;;5059597;28;20576;-78
2021/08/19 11:31:11;;;;;;;0.80;0.40;;;26.00;44.50;;;;;;5064678;28;20115;-78
2021/08/19 11:33:39;;;;;;;0.60;0.30;;;26.10;45.80;;;;;;5064466;28;20064;-76
2021/08/19 11:36:05;;;;;;;0.80;0.40;;;26.30;45.00;;;;;;5065126;28;20549;-81
2021/08/19 11:38:30;;;;;;;0.68;0.30;;;26.30;45.70;;;;;;5069897;28;20353;-81
2021/08/19 11:40:58;;;;;;;1.35;0.40;;;26.40;44.40;;;;;;5063934;28;20479;-77
2021/08/19 11:43:28;;;;;;;0.55;0.30;;;26.30;44.50;;;;;;5074099;28;20025;-78
2021/08/19 11:46:17;;;;;;;0.60;0.22;;;26.00;44.60;;;;;;5072540;28;20151;-77
2021/08/19 11:48:55;;;;;;;1.50;0.40;;;25.50;47.00;;;;;;5067730;28;20033;-77
2021/08/19 11:51:27;;;;;;;0.55;0.25;;;25.60;45.20;;;;;;5072301;28;20036;-77
2021/08/19 11:54:03;;;;;;;0.75;0.40;;;25.50;46.20;;;;;;5075059;28;20044;-77
2021/08/19 11:56:36;;;;;;;2.05;0.43;;;25.50;46.60;;;;;;5074005;28;20020;-77
2021/08/19 11:59:03;;;;;;;0.85;0.30;;;25.60;47.20;;;;;;5072177;28;20510;-77
2021/08/19 12:01:30;;;;;;;0.47;0.25;;;25.60;47.70;;;;;;5074422;28;20052;-77
2021/08/19 12:03:56;;;;;;;0.60;0.35;;;25.40;47.20;;;;;;5072093;28;20509;-78
2021/08/19 12:06:24;;;;;;;0.45;0.20;;;25.40;47.00;;;;;;5075470;28;20032;-78
2021/08/19 12:08:55;;;;;;;0.77;0.28;;;25.10;47.80;;;;;;5076101;28;20027;-78
2021/08/19 12:11:29;;;;;;;0.55;0.28;;;25.10;47.50;;;;;;5071437;28;20020;-77
2021/08/19 12:13:57;;;;;;;0.63;0.30;;;25.00;48.10;;;;;;5075631;28;20064;-77
2021/08/19 12:16:27;;;;;;;0.43;0.20;;;24.80;47.40;;;;;;5071158;28;20025;-77
2021/08/19 12:19:26;;;;;;;0.43;0.20;;;24.80;48.20;;;;;;5063357;28;20699;-77
2021/08/19 12:21:52;;;;;;;0.70;0.25;;;24.80;48.40;;;;;;5057950;28;20044;-78
2021/08/19 12:24:22;;;;;;;0.60;0.30;;;24.80;48.30;;;;;;5074921;28;20037;-78
2021/08/19 12:27:06;;;;;;;;;;;24.80;49.00;;;;;;5076789;28;20154;-84
2021/08/19 12:29:37;;;;;;;0.52;0.30;;;24.80;48.40;;;;;;5068893;28;19908;-78
2021/08/19 12:32:03;;;;;;;0.30;0.20;;;24.80;48.30;;;;;;5071717;28;20123;-78
2021/08/19 12:34:29;;;;;;;0.47;0.30;;;24.80;47.60;;;;;;5072297;28;20372;-77
2021/08/19 12:37:06;;;;;;;0.35;0.20;;;24.90;48.70;;;;;;5076429;28;20040;-79
2021/08/19 12:39:35;;;;;;;0.40;0.30;;;24.90;48.70;;;;;;5066254;28;20056;-79
2021/08/19 12:42:09;;;;;;;0.55;0.30;;;24.80;49.40;;;;;;5076002;28;20061;-79
2021/08/19 12:44:36;;;;;;;2.25;0.43;;;24.80;49.40;;;;;;5075650;28;20097;-79
2021/08/19 12:47:03;;;;;;;0.60;0.30;;;24.80;49.80;;;;;;5075418;28;20079;-78
2021/08/19 12:49:38;;;;;;;0.70;0.40;;;24.90;50.10;;;;;;5075113;28;20025;-79
2021/08/19 12:52:22;;;;;;;0.70;0.30;;;24.70;49.90;;;;;;5075058;28;20059;-79